Time;durP1;ratioP1;P1;durP2;ratioP2;P2;SDS_P1;SDS_P2;PMS_P1;PMS_P2;Temp;Humidity;BMP_temperature;BMP_pressure;BME280_temperature;BME280_humidity;BME280_pressure;Samples;Min_cycle;Max_cycle;Signal;HPM_P1;HPM_P2
2023/07/16 00:01:04;;;;;;;;;;;;;;;;;;6335704;28;19979;-70
2023/07/16 00:04:08;;;;;;;;;;;;;;;;;;6336956;28;19986;-71
2023/07/16 00:07:12;;;;;;;;;;;;;;;;;;6340036;28;19975;-70
2023/07/16 00:10:16;;;;;;;;;;;;;;;;;;6340100;28;20256;-70
2023/07/16 00:13:19;;;;;;;;;;;;;;;;;;6340137;28;20014;-70
2023/07/16 00:16:23;;;;;;;;;;;;;;;;;;6339792;28;19987;-71
2023/07/16 00:19:27;;;;;;;;;;;;;;;;;;6339877;28;19980;-70
2023/07/16 00:22:31;;;;;;;;;;;;;;;;;;6340094;28;20153;-71
2023/07/16 00:25:35;;;;;;;;;;;;;;;;;;6339700;28;20263;-70
2023/07/16 00:28:38;;;;;;;;;;;;;;;;;;6339571;28;19983;-71
2023/07/16 00:31:42;;;;;;;;;;;;;;;;;;6339514;28;20272;-71
2023/07/16 00:34:46;;;;;;;;;;;;;;;;;;6340688;28;19984;-71
2023/07/16 00:37:50;;;;;;;;;;;;;;;;;;6296710;28;20256;-71
2023/07/16 00:40:54;;;;;;;;;;;;;;;;;;6296563;28;19983;-70
2023/07/16 00:43:57;;;;;;;;;;;;;;;;;;6313949;28;20116;-71
2023/07/16 00:47:01;;;;;;;;;;;;;;;;;;6296320;28;19983;-71
2023/07/16 00:50:05;;;;;;;;;;;;;;;;;;6296056;28;19979;-71
2023/07/16 00:53:09;;;;;;;;;;;;;;;;;;6313891;28;20272;-70
2023/07/16 00:56:16;;;;;;;;;;;;;;;;;;6296710;28;19988;-70
2023/07/16 00:59:20;;;;;;;;;;;;;;;;;;6296434;28;19983;-70
2023/07/16 01:02:24;;;;;;;;;;;;;;;;;;6313952;28;20257;-70
2023/07/16 01:05:28;;;;;;;;;;;;;;;;;;6313858;28;20157;-70
2023/07/16 01:08:32;;;;;;;;;;;;;;;;;;6332178;28;19979;-71
2023/07/16 01:11:36;;;;;;;;;;;;;;;;;;6320596;28;19983;-71
2023/07/16 01:14:40;;;;;;;;;;;;;;;;;;6338431;28;19978;-71
2023/07/16 01:17:45;;;;;;;;;;;;;;;;;;6319520;28;19986;-71
2023/07/16 01:20:49;;;;;;;;;;;;;;;;;;6353256;28;19982;-71
2023/07/16 01:23:52;;;;;;;;;;;;;;;;;;6320501;28;19983;-71
2023/07/16 01:26:56;;;;;;;;;;;;;;;;;;6338623;28;20251;-71
2023/07/16 01:30:00;;;;;;;;;;;;;;;;;;6319717;28;19988;-72
2023/07/16 01:33:05;;;;;;;;;;;;;;;;;;6353915;28;20255;-71
2023/07/16 01:36:09;;;;;;;;;;;;;;;;;;6337833;28;19971;-71
2023/07/16 01:39:13;;;;;;;;;;;;;;;;;;6319922;28;19982;-71
2023/07/16 01:42:16;;;;;;;;;;;;;;;;;;6338090;28;19987;-71
2023/07/16 01:45:20;;;;;;;;;;;;;;;;;;6337474;28;19983;-71
2023/07/16 01:48:24;;;;;;;;;;;;;;;;;;6338130;28;19982;-71
2023/07/16 01:51:29;;;;;;;;;;;;;;;;;;6319542;28;20279;-71
2023/07/16 01:54:32;;;;;;;;;;;;;;;;;;6337740;28;19984;-71
2023/07/16 01:57:36;;;;;;;;;;;;;;;;;;6337676;28;19984;-71
2023/07/16 02:00:40;;;;;;;;;;;;;;;;;;6352768;28;19988;-71
2023/07/16 02:03:44;;;;;;;;;;;;;;;;;;6352520;28;19994;-71
2023/07/16 02:06:48;;;;;;;;;;;;;;;;;;6333189;28;19986;-71
2023/07/16 02:09:56;;;;;;;;;;;;;;;;;;6312374;28;19979;-71
2023/07/16 02:12:59;;;;;;;;;;;;;;;;;;6293622;28;19995;-71
2023/07/16 02:16:03;;;;;;;;;;;;;;;;;;6293599;28;20248;-71
2023/07/16 02:19:07;;;;;;;;;;;;;;;;;;6293761;28;19987;-71
2023/07/16 02:22:11;;;;;;;;;;;;;;;;;;6293929;28;19982;-71
2023/07/16 02:25:15;;;;;;;;;;;;;;;;;;6311830;28;19999;-70
2023/07/16 02:28:19;;;;;;;;;;;;;;;;;;6293160;28;19979;-71
2023/07/16 02:31:22;;;;;;;;;;;;;;;;;;6311755;28;19983;-71
2023/07/16 02:34:26;;;;;;;;;;;;;;;;;;6293535;28;19991;-71
2023/07/16 02:37:30;;;;;;;;;;;;;;;;;;6292680;28;19980;-71
2023/07/16 02:40:34;;;;;;;;;;;;;;;;;;6293086;28;19983;-70
2023/07/16 02:43:39;;;;;;;;;;;;;;;;;;6293025;28;19986;-72
2023/07/16 02:46:44;;;;;;;;;;;;;;;;;;6311368;28;19975;-72
2023/07/16 02:49:48;;;;;;;;;;;;;;;;;;6311025;28;19999;-71
2023/07/16 02:52:51;;;;;;;;;;;;;;;;;;6311288;28;19992;-71
2023/07/16 02:55:55;;;;;;;;;;;;;;;;;;6293327;28;19983;-71
2023/07/16 02:58:59;;;;;;;;;;;;;;;;;;6293268;28;19983;-71
2023/07/16 03:02:03;;;;;;;;;;;;;;;;;;6294934;28;19988;-71
2023/07/16 03:05:07;;;;;;;;;;;;;;;;;;6310756;28;19983;-71
2023/07/16 03:08:10;;;;;;;;;;;;;;;;;;6326875;28;19975;-71
2023/07/16 03:11:14;;;;;;;;;;;;;;;;;;6336001;28;19975;-72
2023/07/16 03:14:18;;;;;;;;;;;;;;;;;;6317669;28;19983;-72
2023/07/16 03:17:22;;;;;;;;;;;;;;;;;;6317953;28;19983;-71
2023/07/16 03:20:26;;;;;;;;;;;;;;;;;;6351330;28;19987;-71
2023/07/16 03:23:29;;;;;;;;;;;;;;;;;;6350878;28;19991;-72
2023/07/16 03:26:33;;;;;;;;;;;;;;;;;;6335459;28;20060;-72
2023/07/16 03:29:37;;;;;;;;;;;;;;;;;;6317930;28;20167;-72
2023/07/16 03:32:42;;;;;;;;;;;;;;;;;;6351440;28;20135;-71
2023/07/16 03:35:55;;;;;;;;;;;;;;;;;;6335559;28;19983;-71
2023/07/16 03:38:59;;;;;;;;;;;;;;;;;;6336527;28;19979;-71
2023/07/16 03:42:03;;;;;;;;;;;;;;;;;;6355843;28;20268;-71
2023/07/16 03:45:07;;;;;;;;;;;;;;;;;;6355764;28;19990;-70
2023/07/16 03:48:10;;;;;;;;;;;;;;;;;;6340247;28;19987;-70
2023/07/16 03:51:14;;;;;;;;;;;;;;;;;;6355810;28;19991;-70
2023/07/16 03:54:18;;;;;;;;;;;;;;;;;;6340667;28;19975;-71
2023/07/16 03:57:22;;;;;;;;;;;;;;;;;;6355453;28;19979;-71
2023/07/16 04:00:26;;;;;;;;;;;;;;;;;;6355390;28;19988;-71
2023/07/16 04:03:30;;;;;;;;;;;;;;;;;;6355097;28;19991;-71
2023/07/16 04:06:34;;;;;;;;;;;;;;;;;;6354891;28;19991;-71
2023/07/16 04:09:37;;;;;;;;;;;;;;;;;;6339455;28;19979;-71
2023/07/16 04:12:41;;;;;;;;;;;;;;;;;;6339581;28;19984;-71
2023/07/16 04:15:45;;;;;;;;;;;;;;;;;;6339668;28;20078;-71
2023/07/16 04:18:49;;;;;;;;;;;;;;;;;;6339662;28;20260;-71
2023/07/16 04:21:52;;;;;;;;;;;;;;;;;;6339712;28;19982;-71
2023/07/16 04:24:56;;;;;;;;;;;;;;;;;;6339489;28;19983;-71
2023/07/16 04:28:00;;;;;;;;;;;;;;;;;;6339072;28;19986;-71
2023/07/16 04:31:04;;;;;;;;;;;;;;;;;;6338876;28;19999;-71
2023/07/16 04:34:08;;;;;;;;;;;;;;;;;;6339408;28;19975;-71
2023/07/16 04:37:12;;;;;;;;;;;;;;;;;;6338812;28;19975;-71
2023/07/16 04:40:15;;;;;;;;;;;;;;;;;;6338870;28;19978;-71
2023/07/16 04:43:19;;;;;;;;;;;;;;;;;;6339328;28;19979;-72
2023/07/16 04:46:23;;;;;;;;;;;;;;;;;;6338690;28;20101;-71
2023/07/16 04:49:27;;;;;;;;;;;;;;;;;;6338979;28;19980;-72
2023/07/16 04:52:31;;;;;;;;;;;;;;;;;;6337414;28;19983;-71
2023/07/16 04:55:35;;;;;;;;;;;;;;;;;;6338995;28;20156;-72
2023/07/16 04:58:38;;;;;;;;;;;;;;;;;;6338963;28;19989;-71
2023/07/16 05:01:42;;;;;;;;;;;;;;;;;;6338592;28;19978;-71
2023/07/16 05:04:47;;;;;;;;;;;;;;;;;;6338805;28;19983;-71
2023/07/16 05:07:51;;;;;;;;;;;;;;;;;;6338157;28;19994;-71
2023/07/16 05:10:55;;;;;;;;;;;;;;;;;;6320208;28;19987;-71
2023/07/16 05:13:59;;;;;;;;;;;;;;;;;;6338285;28;19983;-71
2023/07/16 05:17:03;;;;;;;;;;;;;;;;;;6338564;28;19978;-71
2023/07/16 05:20:07;;;;;;;;;;;;;;;;;;6337995;28;19979;-71
2023/07/16 05:23:10;;;;;;;;;;;;;;;;;;6338122;28;20209;-71
2023/07/16 05:26:14;;;;;;;;;;;;;;;;;;6337860;28;19987;-71
2023/07/16 05:29:18;;;;;;;;;;;;;;;;;;6338908;28;19967;-71
2023/07/16 05:32:22;;;;;;;;;;;;;;;;;;6338251;28;19979;-71
2023/07/16 05:35:26;;;;;;;;;;;;;;;;;;6332632;28;20132;-70
2023/07/16 05:38:30;;;;;;;;;;;;;;;;;;6312753;28;20268;-71
2023/07/16 05:41:33;;;;;;;;;;;;;;;;;;6294660;28;20248;-71
2023/07/16 05:44:37;;;;;;;;;;;;;;;;;;6293972;28;20256;-70
2023/07/16 05:47:41;;;;;;;;;;;;;;;;;;6294516;28;20217;-71
2023/07/16 05:50:45;;;;;;;;;;;;;;;;;;6312454;28;19979;-70
2023/07/16 05:53:49;;;;;;;;;;;;;;;;;;6311963;28;20167;-71
2023/07/16 05:56:53;;;;;;;;;;;;;;;;;;6312059;28;19984;-71
2023/07/16 05:59:57;;;;;;;;;;;;;;;;;;6312404;28;19983;-73
2023/07/16 06:03:01;;;;;;;;;;;;;;;;;;6311762;28;19980;-71
2023/07/16 06:06:06;;;;;;;;;;;;;;;;;;6312560;28;19975;-71
2023/07/16 06:09:10;;;;;;;;;;;;;;;;;;6335916;28;20051;-71
2023/07/16 06:12:14;;;;;;;;;;;;;;;;;;6336704;28;20165;-71
2023/07/16 06:15:17;;;;;;;;;;;;;;;;;;6337093;28;19995;-71
2023/07/16 06:18:21;;;;;;;;;;;;;;;;;;6336834;28;19984;-71
2023/07/16 06:21:25;;;;;;;;;;;;;;;;;;6336551;28;19979;-71
2023/07/16 06:24:29;;;;;;;;;;;;;;;;;;6337072;28;19979;-71
2023/07/16 06:27:33;;;;;;;;;;;;;;;;;;6336796;28;19983;-71
2023/07/16 06:30:36;;;;;;;;;;;;;;;;;;6336501;28;19984;-71
2023/07/16 06:33:40;;;;;;;;;;;;;;;;;;6336755;28;19979;-71
2023/07/16 06:36:44;;;;;;;;;;;;;;;;;;6336794;28;20143;-71
2023/07/16 06:39:48;;;;;;;;;;;;;;;;;;6336679;28;19978;-71
2023/07/16 06:42:51;;;;;;;;;;;;;;;;;;6336515;28;19984;-72
2023/07/16 06:45:56;;;;;;;;;;;;;;;;;;6336452;28;19980;-71
2023/07/16 06:49:00;;;;;;;;;;;;;;;;;;6336298;28;20247;-70
2023/07/16 06:52:04;;;;;;;;;;;;;;;;;;6336301;28;19981;-70
2023/07/16 06:55:08;;;;;;;;;;;;;;;;;;6336476;28;20151;-71
2023/07/16 06:58:12;;;;;;;;;;;;;;;;;;6336277;28;20038;-71
2023/07/16 07:01:16;;;;;;;;;;;;;;;;;;6336116;28;19983;-70
2023/07/16 07:04:19;;;;;;;;;;;;;;;;;;6317468;28;19982;-71
2023/07/16 07:07:24;;;;;;;;;;;;;;;;;;6335913;28;19975;-72
2023/07/16 07:10:27;;;;;;;;;;;;;;;;;;6335795;28;19983;-72
2023/07/16 07:13:31;;;;;;;;;;;;;;;;;;6334954;28;19980;-71
2023/07/16 07:16:35;;;;;;;;;;;;;;;;;;6335701;28;20130;-71
2023/07/16 07:19:39;;;;;;;;;;;;;;;;;;6335961;28;19983;-71
2023/07/16 07:22:42;;;;;;;;;;;;;;;;;;6335511;28;19979;-71
2023/07/16 07:25:46;;;;;;;;;;;;;;;;;;6335598;28;20268;-73
2023/07/16 07:28:50;;;;;;;;;;;;;;;;;;6335221;28;19982;-70
2023/07/16 07:31:54;;;;;;;;;;;;;;;;;;6335506;28;19987;-71
2023/07/16 07:34:58;;;;;;;;;;;;;;;;;;6335438;28;19979;-74
2023/07/16 07:38:03;;;;;;;;;;;;;;;;;;6335655;28;20283;-72
2023/07/16 07:41:07;;;;;;;;;;;;;;;;;;6335469;28;19979;-72
2023/07/16 07:44:11;;;;;;;;;;;;;;;;;;6335623;28;19983;-71
2023/07/16 07:47:14;;;;;;;;;;;;;;;;;;6335741;28;19983;-72
2023/07/16 07:51:57;;;;;;;;;;;;;;;;;;6358948;27;19915;-74
2023/07/16 07:55:01;;;;;;;;;;;;;;;;;;6358559;28;19987;-72
2023/07/16 07:58:06;;;;;;;;;;;;;;;;;;6358515;28;20003;-74
2023/07/16 08:01:10;;;;;;;;;;;;;;;;;;6358116;28;20166;-74
2023/07/16 08:04:14;;;;;;;;;;;;;;;;;;6357843;28;19979;-73
2023/07/16 08:07:20;;;;;;;;;;;;;;;;;;6357663;28;20160;-73
2023/07/16 08:10:24;;;;;;;;;;;;;;;;;;6357651;28;20035;-75
2023/07/16 08:13:29;;;;;;;;;;;;;;;;;;6357852;28;20268;-73
2023/07/16 08:16:33;;;;;;;;;;;;;;;;;;6357801;28;19983;-74
2023/07/16 08:19:37;;;;;;;;;;;;;;;;;;6357486;28;20004;-73
2023/07/16 08:22:43;;;;;;;;;;;;;;;;;;6356291;28;19986;-73
2023/07/16 08:25:47;;;;;;;;;;;;;;;;;;6358106;28;19982;-74
2023/07/16 08:28:52;;;;;;;;;;;;;;;;;;6357228;28;19983;-74
2023/07/16 08:31:56;;;;;;;;;;;;;;;;;;6357563;28;19987;-74
2023/07/16 08:35:00;;;;;;;;;;;;;;;;;;6357133;28;19983;-74
2023/07/16 08:38:09;;;;;;;;;;;;;;;;;;6357192;28;19987;-73
2023/07/16 08:41:13;;;;;;;;;;;;;;;;;;6357403;28;19987;-74
2023/07/16 08:44:18;;;;;;;;;;;;;;;;;;6357222;28;19987;-74
2023/07/16 08:47:22;;;;;;;;;;;;;;;;;;6356791;28;19987;-73
2023/07/16 08:50:26;;;;;;;;;;;;;;;;;;6355773;28;19983;-73
2023/07/16 08:53:34;;;;;;;;;;;;;;;;;;6356408;28;19982;-73
2023/07/16 08:56:38;;;;;;;;;;;;;;;;;;6355604;28;19987;-73
2023/07/16 08:59:42;;;;;;;;;;;;;;;;;;6356649;28;19999;-74
2023/07/16 09:02:46;;;;;;;;;;;;;;;;;;6342183;28;20134;-74
2023/07/16 09:05:50;;;;;;;;;;;;;;;;;;6339679;28;20156;-73
2023/07/16 09:08:56;;;;;;;;;;;;;;;;;;6339578;28;19994;-74
2023/07/16 09:12:00;;;;;;;;;;;;;;;;;;6339158;28;19984;-74
2023/07/16 09:15:05;;;;;;;;;;;;;;;;;;6339237;28;19987;-74
2023/07/16 09:18:10;;;;;;;;;;;;;;;;;;6339140;28;20028;-74
2023/07/16 09:21:14;;;;;;;;;;;;;;;;;;6339234;28;19987;-75
2023/07/16 09:24:20;;;;;;;;;;;;;;;;;;6338857;28;19983;-75
2023/07/16 09:27:28;;;;;;;;;;;;;;;;;;6338696;28;19983;-73
2023/07/16 09:30:33;;;;;;;;;;;;;;;;;;6339080;28;20157;-73
2023/07/16 09:33:37;;;;;;;;;;;;;;;;;;6338534;28;20004;-74
2023/07/16 09:36:41;;;;;;;;;;;;;;;;;;6338947;28;20141;-73
2023/07/16 09:39:47;;;;;;;;;;;;;;;;;;6338560;28;19990;-74
2023/07/16 09:42:51;;;;;;;;;;;;;;;;;;6338721;28;19983;-73
2023/07/16 09:45:55;;;;;;;;;;;;;;;;;;6338429;28;19983;-73
2023/07/16 09:48:59;;;;;;;;;;;;;;;;;;6354105;28;20000;-74
2023/07/16 09:52:04;;;;;;;;;;;;;;;;;;6338749;28;19987;-73
2023/07/16 09:55:10;;;;;;;;;;;;;;;;;;6338543;28;19978;-73
2023/07/16 09:58:15;;;;;;;;;;;;;;;;;;6338256;28;20280;-74
2023/07/16 10:01:19;;;;;;;;;;;;;;;;;;6338046;28;19983;-73
2023/07/16 10:04:23;;;;;;;;;;;;;;;;;;6337837;28;19987;-75
2023/07/16 10:07:28;;;;;;;;;;;;;;;;;;6338150;28;19975;-75
2023/07/16 10:10:41;;;;;;;;;;;;;;;;;;6337087;28;19991;-73
2023/07/16 10:13:49;;;;;;;;;;;;;;;;;;6336357;28;19999;-75
2023/07/16 10:16:54;;;;;;;;;;;;;;;;;;6337624;28;19983;-73
2023/07/16 10:19:59;;;;;;;;;;;;;;;;;;6337443;28;19987;-75
2023/07/16 10:23:13;;;;;;;;;;;;;;;;;;6337708;28;19983;-75
2023/07/16 10:26:19;;;;;;;;;;;;;;;;;;6337841;28;19999;-74
2023/07/16 10:29:23;;;;;;;;;;;;;;;;;;6337693;28;20159;-73
2023/07/16 10:32:29;;;;;;;;;;;;;;;;;;6336072;28;20039;-74
2023/07/16 10:35:35;;;;;;;;;;;;;;;;;;6337140;28;19983;-74
2023/07/16 10:38:41;;;;;;;;;;;;;;;;;;6337139;28;20252;-73
2023/07/16 10:41:46;;;;;;;;;;;;;;;;;;6336975;28;19983;-74
2023/07/16 10:44:52;;;;;;;;;;;;;;;;;;6337564;28;19983;-74
2023/07/16 10:47:56;;;;;;;;;;;;;;;;;;6337226;28;20208;-73
2023/07/16 10:51:00;;;;;;;;;;;;;;;;;;6337326;28;19979;-74
2023/07/16 10:54:06;;;;;;;;;;;;;;;;;;6338060;28;20251;-75
2023/07/16 10:57:12;;;;;;;;;;;;;;;;;;6336663;28;19983;-74
2023/07/16 11:00:16;;;;;;;;;;;;;;;;;;6336473;28;20003;-73
2023/07/16 11:03:21;;;;;;;;;;;;;;;;;;6336458;28;19999;-73
2023/07/16 11:06:25;;;;;;;;;;;;;;;;;;6334994;28;20007;-74
2023/07/16 11:09:29;;;;;;;;;;;;;;;;;;6336403;28;19992;-74
2023/07/16 11:12:35;;;;;;;;;;;;;;;;;;6336207;28;19990;-74
2023/07/16 11:15:40;;;;;;;;;;;;;;;;;;6336447;28;20149;-73
2023/07/16 11:18:44;;;;;;;;;;;;;;;;;;6336520;28;19992;-73
2023/07/16 11:21:48;;;;;;;;;;;;;;;;;;6336173;28;19987;-74
2023/07/16 11:24:53;;;;;;;;;;;;;;;;;;6336177;28;19983;-74
2023/07/16 11:27:58;;;;;;;;;;;;;;;;;;6335964;28;19979;-74
2023/07/16 11:31:10;;;;;;;;;;;;;;;;;;6335877;28;20171;-74
2023/07/16 11:34:14;;;;;;;;;;;;;;;;;;6335984;28;20125;-74
2023/07/16 11:37:20;;;;;;;;;;;;;;;;;;6335793;28;19987;-73
2023/07/16 11:40:25;;;;;;;;;;;;;;;;;;6336112;28;20259;-73
2023/07/16 11:43:33;;;;;;;;;;;;;;;;;;6351482;28;19987;-75
2023/07/16 11:46:37;;;;;;;;;;;;;;;;;;6335566;28;20264;-74
2023/07/16 11:49:42;;;;;;;;;;;;;;;;;;6335588;28;20139;-74
2023/07/16 11:52:52;;;;;;;;;;;;;;;;;;6335769;28;19979;-73
2023/07/16 11:55:56;;;;;;;;;;;;;;;;;;6335548;28;19987;-74
2023/07/16 11:59:02;;;;;;;;;;;;;;;;;;6335696;28;19983;-73
2023/07/16 12:02:06;;;;;;;;;;;;;;;;;;6336134;28;19988;-74
2023/07/16 12:05:11;;;;;;;;;;;;;;;;;;6336272;28;19983;-72
2023/07/16 12:08:17;;;;;;;;;;;;;;;;;;6351563;28;19988;-74
2023/07/16 12:11:22;;;;;;;;;;;;;;;;;;6336194;28;20255;-74
2023/07/16 12:14:27;;;;;;;;;;;;;;;;;;6335715;28;19987;-73
2023/07/16 12:17:32;;;;;;;;;;;;;;;;;;6336069;28;19987;-74
2023/07/16 12:20:36;;;;;;;;;;;;;;;;;;6335534;28;19979;-72
2023/07/16 12:23:40;;;;;;;;;;;;;;;;;;6335616;28;19987;-73
2023/07/16 12:26:45;;;;;;;;;;;;;;;;;;6335427;28;19987;-73
2023/07/16 12:29:52;;;;;;;;;;;;;;;;;;6335750;28;19983;-74
2023/07/16 12:32:56;;;;;;;;;;;;;;;;;;6335262;28;20267;-73
2023/07/16 12:36:00;;;;;;;;;;;;;;;;;;6335846;28;19983;-73
2023/07/16 12:39:05;;;;;;;;;;;;;;;;;;6340397;28;20257;-73
2023/07/16 12:42:09;;;;;;;;;;;;;;;;;;6339977;28;19983;-73
2023/07/16 12:45:14;;;;;;;;;;;;;;;;;;6340070;28;19999;-74
2023/07/16 12:48:19;;;;;;;;;;;;;;;;;;6340132;28;19983;-72
2023/07/16 12:51:23;;;;;;;;;;;;;;;;;;6339268;28;19987;-73
2023/07/16 12:54:27;;;;;;;;;;;;;;;;;;6340222;28;19987;-73
2023/07/16 12:57:32;;;;;;;;;;;;;;;;;;6339943;28;19982;-73
2023/07/16 13:00:37;;;;;;;;;;;;;;;;;;6339654;28;19984;-73
2023/07/16 13:03:42;;;;;;;;;;;;;;;;;;6339986;28;20179;-74
2023/07/16 13:06:47;;;;;;;;;;;;;;;;;;6339312;28;19984;-73
2023/07/16 13:09:51;;;;;;;;;;;;;;;;;;6339767;28;19983;-72
2023/07/16 13:13:11;;;;;;;;;;;;;;;;;;6339374;28;19979;-74
2023/07/16 13:16:17;;;;;;;;;;;;;;;;;;6338853;28;19983;-74
2023/07/16 13:19:21;;;;;;;;;;;;;;;;;;6339934;28;20012;-74
2023/07/16 13:22:26;;;;;;;;;;;;;;;;;;6338596;28;19987;-74
2023/07/16 13:25:30;;;;;;;;;;;;;;;;;;6338814;28;19983;-74
2023/07/16 13:28:34;;;;;;;;;;;;;;;;;;6338804;28;19983;-74
2023/07/16 13:31:40;;;;;;;;;;;;;;;;;;6339045;28;19988;-73
2023/07/16 13:34:44;;;;;;;;;;;;;;;;;;6338937;28;19978;-74
2023/07/16 13:37:48;;;;;;;;;;;;;;;;;;6338470;28;19992;-74
2023/07/16 13:40:52;;;;;;;;;;;;;;;;;;6353894;28;20157;-73
2023/07/16 13:43:57;;;;;;;;;;;;;;;;;;6353841;28;19987;-75
2023/07/16 13:47:02;;;;;;;;;;;;;;;;;;6338032;28;19983;-73
2023/07/16 13:50:07;;;;;;;;;;;;;;;;;;6337978;28;20060;-73
2023/07/16 13:53:11;;;;;;;;;;;;;;;;;;6337972;28;19991;-73
2023/07/16 13:56:15;;;;;;;;;;;;;;;;;;6338408;28;19983;-73
2023/07/16 13:59:20;;;;;;;;;;;;;;;;;;6338259;28;19988;-74
2023/07/16 14:02:25;;;;;;;;;;;;;;;;;;6338161;28;20152;-74
2023/07/16 14:05:30;;;;;;;;;;;;;;;;;;6338013;28;19983;-74
2023/07/16 14:08:35;;;;;;;;;;;;;;;;;;6337834;28;19975;-74
2023/07/16 14:11:40;;;;;;;;;;;;;;;;;;6337943;28;19983;-74
2023/07/16 14:14:44;;;;;;;;;;;;;;;;;;6337406;28;19987;-74
2023/07/16 14:17:50;;;;;;;;;;;;;;;;;;6337306;28;19983;-73
2023/07/16 14:20:54;;;;;;;;;;;;;;;;;;6337558;28;19987;-74
2023/07/16 14:23:58;;;;;;;;;;;;;;;;;;6337256;28;19983;-74
2023/07/16 14:27:03;;;;;;;;;;;;;;;;;;6337413;28;20236;-74
2023/07/16 14:30:08;;;;;;;;;;;;;;;;;;6337533;28;19983;-75
2023/07/16 14:33:14;;;;;;;;;;;;;;;;;;6337315;28;19979;-74
2023/07/16 14:36:18;;;;;;;;;;;;;;;;;;6337127;28;19979;-73
2023/07/16 14:39:22;;;;;;;;;;;;;;;;;;6336580;28;19993;-74
2023/07/16 14:42:27;;;;;;;;;;;;;;;;;;6337145;28;19989;-74
2023/07/16 14:45:31;;;;;;;;;;;;;;;;;;6352812;28;19987;-75
2023/07/16 14:48:37;;;;;;;;;;;;;;;;;;6336707;28;20160;-73
2023/07/16 14:51:41;;;;;;;;;;;;;;;;;;6336237;28;19983;-73
2023/07/16 14:54:46;;;;;;;;;;;;;;;;;;6336400;28;20256;-75
2023/07/16 14:57:50;;;;;;;;;;;;;;;;;;6336669;28;20163;-74
2023/07/16 15:00:54;;;;;;;;;;;;;;;;;;6336251;28;20153;-74
2023/07/16 15:04:00;;;;;;;;;;;;;;;;;;6336484;28;19987;-73
2023/07/16 15:07:05;;;;;;;;;;;;;;;;;;6336679;28;20162;-74
2023/07/16 15:10:10;;;;;;;;;;;;;;;;;;6336224;28;19979;-73
2023/07/16 15:13:14;;;;;;;;;;;;;;;;;;6336551;28;19983;-73
2023/07/16 15:16:18;;;;;;;;;;;;;;;;;;6336455;28;19982;-73
2023/07/16 15:19:24;;;;;;;;;;;;;;;;;;6336165;28;19987;-74
2023/07/16 15:22:29;;;;;;;;;;;;;;;;;;6336168;28;20066;-73
2023/07/16 15:25:33;;;;;;;;;;;;;;;;;;6335599;28;19983;-74
2023/07/16 15:28:38;;;;;;;;;;;;;;;;;;6335969;28;20148;-74
2023/07/16 15:31:42;;;;;;;;;;;;;;;;;;6336081;28;19975;-72
2023/07/16 15:34:48;;;;;;;;;;;;;;;;;;6336074;28;19983;-73
2023/07/16 15:37:52;;;;;;;;;;;;;;;;;;6336129;28;19983;-73
2023/07/16 15:40:56;;;;;;;;;;;;;;;;;;6336179;28;20165;-73
2023/07/16 15:44:03;;;;;;;;;;;;;;;;;;6336149;28;19991;-73
2023/07/16 15:47:07;;;;;;;;;;;;;;;;;;6336804;28;19988;-73
2023/07/16 15:50:13;;;;;;;;;;;;;;;;;;6335654;28;20003;-74
2023/07/16 15:53:17;;;;;;;;;;;;;;;;;;6335466;28;19983;-74
2023/07/16 15:56:22;;;;;;;;;;;;;;;;;;6351373;28;19986;-73
2023/07/16 15:59:26;;;;;;;;;;;;;;;;;;6335532;28;20140;-72
2023/07/16 16:02:30;;;;;;;;;;;;;;;;;;6335317;28;20004;-73
2023/07/16 16:05:37;;;;;;;;;;;;;;;;;;6336217;28;19987;-74
2023/07/16 16:08:41;;;;;;;;;;;;;;;;;;6335627;28;19979;-73
2023/07/16 16:11:45;;;;;;;;;;;;;;;;;;6337245;28;19988;-74
2023/07/16 16:14:50;;;;;;;;;;;;;;;;;;6340540;28;19987;-74
2023/07/16 16:17:54;;;;;;;;;;;;;;;;;;6340703;28;20003;-74
2023/07/16 16:21:00;;;;;;;;;;;;;;;;;;6340308;28;19987;-72
2023/07/16 16:24:04;;;;;;;;;;;;;;;;;;6340741;28;19995;-72
2023/07/16 16:27:09;;;;;;;;;;;;;;;;;;6340437;28;20162;-74
2023/07/16 16:30:13;;;;;;;;;;;;;;;;;;6340545;28;19995;-74
2023/07/16 16:33:17;;;;;;;;;;;;;;;;;;6340477;28;19979;-73
2023/07/16 16:36:23;;;;;;;;;;;;;;;;;;6340322;28;19983;-73
2023/07/16 16:39:27;;;;;;;;;;;;;;;;;;6339906;28;19987;-75
2023/07/16 16:42:31;;;;;;;;;;;;;;;;;;6339726;28;20161;-75
2023/07/16 16:45:39;;;;;;;;;;;;;;;;;;6340143;28;19982;-73
2023/07/16 16:48:43;;;;;;;;;;;;;;;;;;6340184;28;19992;-74
2023/07/16 16:51:50;;;;;;;;;;;;;;;;;;6339524;28;20110;-73
2023/07/16 16:54:54;;;;;;;;;;;;;;;;;;6340032;28;19979;-72
2023/07/16 16:57:59;;;;;;;;;;;;;;;;;;6339670;28;19987;-73
2023/07/16 17:01:03;;;;;;;;;;;;;;;;;;6339437;28;19987;-74
2023/07/16 17:04:07;;;;;;;;;;;;;;;;;;6340228;28;19983;-74
2023/07/16 17:07:13;;;;;;;;;;;;;;;;;;6339745;28;19975;-72
2023/07/16 17:10:17;;;;;;;;;;;;;;;;;;6339665;28;19979;-74
2023/07/16 17:13:22;;;;;;;;;;;;;;;;;;6339735;28;19988;-74
2023/07/16 17:16:26;;;;;;;;;;;;;;;;;;6339334;28;19994;-73
2023/07/16 17:19:30;;;;;;;;;;;;;;;;;;6355261;28;19983;-73
2023/07/16 17:22:36;;;;;;;;;;;;;;;;;;6354591;28;19992;-73
2023/07/16 17:25:41;;;;;;;;;;;;;;;;;;6339301;28;19986;-73
2023/07/16 17:28:45;;;;;;;;;;;;;;;;;;6339497;28;19987;-73
2023/07/16 17:31:49;;;;;;;;;;;;;;;;;;6339250;28;19983;-73
2023/07/16 17:34:53;;;;;;;;;;;;;;;;;;6339365;28;19987;-73
2023/07/16 17:37:59;;;;;;;;;;;;;;;;;;6339091;28;20003;-74
2023/07/16 17:41:03;;;;;;;;;;;;;;;;;;6339335;28;20260;-74
2023/07/16 17:44:07;;;;;;;;;;;;;;;;;;6339584;28;19983;-73
2023/07/16 17:47:11;;;;;;;;;;;;;;;;;;6339198;28;19983;-74
2023/07/16 17:50:16;;;;;;;;;;;;;;;;;;6338616;28;19983;-74
2023/07/16 17:53:21;;;;;;;;;;;;;;;;;;6339288;28;19983;-73
2023/07/16 17:56:26;;;;;;;;;;;;;;;;;;6338891;28;20244;-73
2023/07/16 18:00:00;;;;;;;;;;;;;;;;;;6385741;27;19915;-73
2023/07/16 18:03:24;;;;;;;;;;;;;;;;;;6409894;27;19990;-73
2023/07/16 18:06:29;;;;;;;;;;;;;;;;;;6409867;27;19983;-73
2023/07/16 18:09:34;;;;;;;;;;;;;;;;;;6409741;27;20326;-74
2023/07/16 18:12:38;;;;;;;;;;;;;;;;;;6409887;27;19986;-75
2023/07/16 18:16:26;;;;;;;;;;;;;;;;;;6324577;28;19920;-71
2023/07/16 18:19:32;;;;;;;;;;;;;;;;;;6333394;28;19987;-73
2023/07/16 18:22:36;;;;;;;;;;;;;;;;;;6331775;28;19991;-75
2023/07/16 18:25:40;;;;;;;;;;;;;;;;;;6332722;28;19987;-74
2023/07/16 18:28:43;;;;;;;;;;;;;;;;;;6333004;28;19991;-74
2023/07/16 18:31:48;;;;;;;;;;;;;;;;;;6332885;28;20141;-74
2023/07/16 18:34:52;;;;;;;;;;;;;;;;;;6319469;28;19979;-73
2023/07/16 18:37:56;;;;;;;;;;;;;;;;;;6307501;28;19984;-73
2023/07/16 18:40:59;;;;;;;;;;;;;;;;;;6307199;28;19999;-75
2023/07/16 18:44:03;;;;;;;;;;;;;;;;;;6307669;28;20175;-73
2023/07/16 18:47:08;;;;;;;;;;;;;;;;;;6307663;28;19983;-73
2023/07/16 18:50:11;;;;;;;;;;;;;;;;;;6307624;28;19983;-73
2023/07/16 18:53:15;;;;;;;;;;;;;;;;;;6307926;28;19984;-74
2023/07/16 18:56:19;;;;;;;;;;;;;;;;;;6307070;28;19991;-74
2023/07/16 18:59:22;;;;;;;;;;;;;;;;;;6307113;28;19983;-72
2023/07/16 19:02:27;;;;;;;;;;;;;;;;;;6306830;28;20266;-74
2023/07/16 19:05:30;;;;;;;;;;;;;;;;;;6306628;28;19988;-72
2023/07/16 19:08:34;;;;;;;;;;;;;;;;;;6325986;28;20163;-74
2023/07/16 19:11:37;;;;;;;;;;;;;;;;;;6331680;28;19999;-74
2023/07/16 19:24:36;;;;;;;2.70;2.50;;;;;;;;;;6411320;27;20611;-77
2023/07/16 19:34:04;;;;;;;6.07;2.70;;;;;;;;;;6409554;27;20310;-75
2023/07/16 19:37:08;;;;;;;2.90;2.65;;;;;;;;;;6402852;27;20287;-75
2023/07/16 19:40:12;;;;;;;5.30;2.58;;;;;;;;;;6382978;28;20439;-78
2023/07/16 19:43:16;;;;;;;7.60;2.80;;;;;;;;;;6384572;28;20240;-81
2023/07/16 19:46:20;;;;;;;3.45;2.50;;;;;;;;;;6389190;28;20516;-88
2023/07/16 19:49:25;;;;;;;3.33;2.40;;;;;;;;;;6388713;28;20236;-87
2023/07/16 19:52:29;;;;;;;4.63;2.78;;;;;;;;;;6385710;28;20526;-87
2023/07/16 19:55:36;;;;;;;3.03;2.75;;;;;;;;;;6385085;28;20233;-85
2023/07/16 19:58:40;;;;;;;3.90;3.60;;;;;;;;;;6385190;28;20237;-85
2023/07/16 20:01:46;;;;;;;3.08;2.55;;;;;;;;;;6387114;28;20245;-84
2023/07/16 20:04:51;;;;;;;2.65;2.45;;;;;;;;;;6395745;28;20229;-86
2023/07/16 20:07:55;;;;;;;5.88;2.97;;;;;;;;;;6397782;28;20216;-84
2023/07/16 20:11:01;;;;;;;5.38;2.60;;;;;;;;;;6398928;28;20216;-86
2023/07/16 20:14:05;;;;;;;2.72;2.63;;;;;;;;;;6396995;28;20221;-83
2023/07/16 20:17:09;;;;;;;2.75;2.55;;;;;;;;;;6399767;28;20209;-88
2023/07/16 20:20:15;;;;;;;3.28;2.80;;;;;;;;;;6399916;28;20190;-85
2023/07/16 20:23:18;;;;;;;3.33;2.88;;;;;;;;;;6400132;28;20208;-86
2023/07/16 20:26:24;;;;;;;4.38;2.67;;;;;;;;;;6399250;28;20186;-88
2023/07/16 20:29:28;;;;;;;4.47;2.80;;;;;;;;;;6398601;28;20194;-87
2023/07/16 20:32:35;;;;;;;5.03;2.28;;;;;;;;;;6398676;28;20289;-87
2023/07/16 20:35:40;;;;;;;3.35;2.28;;;;;;;;;;6397947;28;20252;-85
2023/07/16 20:38:44;;;;;;;3.25;2.33;;;;;;;;;;6399617;28;20209;-86
2023/07/16 20:41:48;;;;;;;5.72;2.60;;;;;;;;;;6399428;28;20199;-87
2023/07/16 20:45:14;;;;;;;2.85;2.50;;;;;;;;;;6384891;28;20200;-86
2023/07/16 20:48:18;;;;;;;2.58;2.47;;;;;;;;;;6380715;28;20218;-86
2023/07/16 20:51:24;;;;;;;2.75;2.55;;;;;;;;;;6381978;28;20204;-85
2023/07/16 20:54:27;;;;;;;2.47;2.38;;;;;;;;;;6382050;28;20237;-87
2023/07/16 20:57:31;;;;;;;3.58;2.90;;;;;;;;;;6381903;28;20197;-88
2023/07/16 21:00:35;;;;;;;2.45;2.35;;;;;;;;;;6381652;28;20185;-87
2023/07/16 21:03:39;;;;;;;2.92;2.50;;;;;;;;;;6381103;28;20202;-87